Jarvie, Canada
Current Conditions -  °F | °C
As of 7:16 PM on Sunday 21 Dec 2014 (Local Time) from CZVL Reporting Station
Light Snow Light Snow  
Wind Chill: 23°   Ceiling: 3800
Heat Index: 30°   Visibility: 3mi
Dew Point: 30°   Wind: 8mph
Humidity: 100%   Direction: 280°W
Pressure: 29.53"   Gusts: NA
Location:  54.45°N, 113.98°W
Report Text: CZVL 220216Z AUTO 28007KT 3SM -SN SCT006 OVC038 M01/M01 A2953 RMK SLP034
Loading
Personal Weather Stations






























Interactive Weather Map New forecast layout! Learn more

10-Day Weather Forecast

Advertisements
Track Severe Weather on mobile